sensor_id;sensor_type;location;lat;lon;timestamp;P1;durP1;ratioP1;P2;durP2;ratioP2
59167;SDS011;44948;55.046;73.266;2023-04-15T00:02:58;6.22;;;1.90;;
59167;SDS011;44948;55.046;73.266;2023-04-15T00:09:18;3.45;;;1.30;;
59167;SDS011;44948;55.046;73.266;2023-04-15T00:12:58;3.85;;;0.90;;
59167;SDS011;44948;55.046;73.266;2023-04-15T00:16:00;2.30;;;1.27;;
59167;SDS011;44948;55.046;73.266;2023-04-15T00:19:08;5.13;;;1.05;;
59167;SDS011;44948;55.046;73.266;2023-04-15T00:22:12;5.57;;;1.70;;
59167;SDS011;44948;55.046;73.266;2023-04-15T00:25:14;3.50;;;1.05;;
59167;SDS011;44948;55.046;73.266;2023-04-15T00:28:16;4.28;;;1.15;;
59167;SDS011;44948;55.046;73.266;2023-04-15T00:31:18;4.32;;;1.70;;
59167;SDS011;44948;55.046;73.266;2023-04-15T00:34:20;9.43;;;3.15;;
59167;SDS011;44948;55.046;73.266;2023-04-15T00:37:58;2.90;;;1.20;;
59167;SDS011;44948;55.046;73.266;2023-04-15T00:41:09;7.82;;;2.83;;
59167;SDS011;44948;55.046;73.266;2023-04-15T00:44:21;10.05;;;2.22;;
59167;SDS011;44948;55.046;73.266;2023-04-15T00:47:58;2.75;;;1.30;;
59167;SDS011;44948;55.046;73.266;2023-04-15T00:51:00;2.35;;;1.25;;
59167;SDS011;44948;55.046;73.266;2023-04-15T00:54:03;3.85;;;1.42;;
59167;SDS011;44948;55.046;73.266;2023-04-15T00:57:05;6.47;;;1.60;;
59167;SDS011;44948;55.046;73.266;2023-04-15T01:00:07;7.93;;;1.83;;
59167;SDS011;44948;55.046;73.266;2023-04-15T01:03:10;7.13;;;1.88;;
59167;SDS011;44948;55.046;73.266;2023-04-15T01:06:12;6.47;;;2.17;;
59167;SDS011;44948;55.046;73.266;2023-04-15T01:09:14;14.02;;;3.47;;
59167;SDS011;44948;55.046;73.266;2023-04-15T01:12:58;2.28;;;0.80;;
59167;SDS011;44948;55.046;73.266;2023-04-15T01:16:01;2.28;;;1.23;;
59167;SDS011;44948;55.046;73.266;2023-04-15T01:19:13;2.05;;;0.90;;
59167;SDS011;44948;55.046;73.266;2023-04-15T01:22:58;7.08;;;1.80;;
59167;SDS011;44948;55.046;73.266;2023-04-15T01:26:01;4.75;;;1.00;;
59167;SDS011;44948;55.046;73.266;2023-04-15T01:29:03;9.43;;;2.35;;
59167;SDS011;44948;55.046;73.266;2023-04-15T01:32:05;2.15;;;0.90;;
59167;SDS011;44948;55.046;73.266;2023-04-15T01:35:26;1.55;;;0.65;;
59167;SDS011;44948;55.046;73.266;2023-04-15T01:38:34;4.07;;;1.48;;
59167;SDS011;44948;55.046;73.266;2023-04-15T01:41:37;2.20;;;1.08;;
59167;SDS011;44948;55.046;73.266;2023-04-15T01:44:49;3.55;;;1.50;;
59167;SDS011;44948;55.046;73.266;2023-04-15T01:51:01;4.07;;;1.00;;
59167;SDS011;44948;55.046;73.266;2023-04-15T01:54:04;1.83;;;1.13;;
59167;SDS011;44948;55.046;73.266;2023-04-15T01:57:08;1.27;;;0.63;;
59167;SDS011;44948;55.046;73.266;2023-04-15T02:00:11;1.75;;;0.80;;
59167;SDS011;44948;55.046;73.266;2023-04-15T02:03:27;6.85;;;0.98;;
59167;SDS011;44948;55.046;73.266;2023-04-15T02:06:32;7.60;;;1.47;;
59167;SDS011;44948;55.046;73.266;2023-04-15T02:09:41;12.80;;;1.85;;
59167;SDS011;44948;55.046;73.266;2023-04-15T02:16:04;2.72;;;1.10;;
59167;SDS011;44948;55.046;73.266;2023-04-15T02:19:19;4.65;;;1.92;;
59167;SDS011;44948;55.046;73.266;2023-04-15T02:22:58;4.60;;;1.08;;
59167;SDS011;44948;55.046;73.266;2023-04-15T02:26:02;4.70;;;1.42;;
59167;SDS011;44948;55.046;73.266;2023-04-15T02:29:07;17.73;;;5.85;;
59167;SDS011;44948;55.046;73.266;2023-04-15T02:32:10;2.03;;;1.00;;
59167;SDS011;44948;55.046;73.266;2023-04-15T02:35:19;4.68;;;1.40;;
59167;SDS011;44948;55.046;73.266;2023-04-15T02:38:27;3.25;;;1.23;;
59167;SDS011;44948;55.046;73.266;2023-04-15T02:41:31;2.35;;;1.08;;
59167;SDS011;44948;55.046;73.266;2023-04-15T02:44:34;3.30;;;1.30;;
59167;SDS011;44948;55.046;73.266;2023-04-15T02:51:16;5.68;;;1.08;;
59167;SDS011;44948;55.046;73.266;2023-04-15T02:54:21;2.83;;;1.08;;
59167;SDS011;44948;55.046;73.266;2023-04-15T02:57:59;30.63;;;8.32;;
59167;SDS011;44948;55.046;73.266;2023-04-15T03:01:03;14.20;;;2.85;;
59167;SDS011;44948;55.046;73.266;2023-04-15T03:04:06;10.52;;;2.65;;
59167;SDS011;44948;55.046;73.266;2023-04-15T03:07:11;7.25;;;1.60;;
59167;SDS011;44948;55.046;73.266;2023-04-15T03:10:14;2.03;;;1.20;;
59167;SDS011;44948;55.046;73.266;2023-04-15T03:13:17;3.40;;;1.25;;
59167;SDS011;44948;55.046;73.266;2023-04-15T03:16:21;9.65;;;2.40;;
59167;SDS011;44948;55.046;73.266;2023-04-15T03:19:24;5.25;;;1.10;;
59167;SDS011;44948;55.046;73.266;2023-04-15T03:22:58;16.80;;;2.15;;
59167;SDS011;44948;55.046;73.266;2023-04-15T03:26:02;3.03;;;1.67;;
59167;SDS011;44948;55.046;73.266;2023-04-15T03:29:17;2.88;;;1.35;;
59167;SDS011;44948;55.046;73.266;2023-04-15T03:32:58;5.97;;;1.20;;
59167;SDS011;44948;55.046;73.266;2023-04-15T03:36:02;5.55;;;1.20;;
59167;SDS011;44948;55.046;73.266;2023-04-15T03:39:05;3.55;;;1.60;;
59167;SDS011;44948;55.046;73.266;2023-04-15T03:42:08;3.97;;;1.20;;
59167;SDS011;44948;55.046;73.266;2023-04-15T03:45:11;4.63;;;1.20;;
59167;SDS011;44948;55.046;73.266;2023-04-15T03:48:14;3.80;;;1.83;;
59167;SDS011;44948;55.046;73.266;2023-04-15T03:51:18;2.08;;;0.73;;
59167;SDS011;44948;55.046;73.266;2023-04-15T03:54:21;3.50;;;0.80;;
59167;SDS011;44948;55.046;73.266;2023-04-15T04:01:08;4.80;;;1.70;;
59167;SDS011;44948;55.046;73.266;2023-04-15T04:04:11;6.47;;;3.20;;
59167;SDS011;44948;55.046;73.266;2023-04-15T04:07:58;2.28;;;1.41;;
59167;SDS011;44948;55.046;73.266;2023-04-15T04:11:02;2.25;;;1.05;;
59167;SDS011;44948;55.046;73.266;2023-04-15T04:14:05;2.00;;;1.00;;
59167;SDS011;44948;55.046;73.266;2023-04-15T04:17:08;3.92;;;1.60;;
59167;SDS011;44948;55.046;73.266;2023-04-15T04:20:24;1.03;;;0.80;;
59167;SDS011;44948;55.046;73.266;2023-04-15T04:23:32;4.55;;;1.48;;
59167;SDS011;44948;55.046;73.266;2023-04-15T04:26:35;0.73;;;0.60;;
59167;SDS011;44948;55.046;73.266;2023-04-15T04:29:48;3.63;;;1.13;;
59167;SDS011;44948;55.046;73.266;2023-04-15T04:33:02;1.30;;;1.00;;
59167;SDS011;44948;55.046;73.266;2023-04-15T04:36:05;2.10;;;1.10;;
59167;SDS011;44948;55.046;73.266;2023-04-15T04:39:10;6.20;;;2.33;;
59167;SDS011;44948;55.046;73.266;2023-04-15T04:42:58;5.38;;;2.65;;
59167;SDS011;44948;55.046;73.266;2023-04-15T04:46:02;9.38;;;1.73;;
59167;SDS011;44948;55.046;73.266;2023-04-15T04:49:05;8.88;;;2.70;;
59167;SDS011;44948;55.046;73.266;2023-04-15T04:52:08;12.35;;;3.38;;
59167;SDS011;44948;55.046;73.266;2023-04-15T04:55:22;28.52;;;7.38;;
59167;SDS011;44948;55.046;73.266;2023-04-15T04:58:25;30.55;;;9.73;;
59167;SDS011;44948;55.046;73.266;2023-04-15T05:01:33;10.18;;;3.78;;
59167;SDS011;44948;55.046;73.266;2023-04-15T05:04:36;4.32;;;1.95;;
59167;SDS011;44948;55.046;73.266;2023-04-15T05:11:01;7.60;;;2.53;;
59167;SDS011;44948;55.046;73.266;2023-04-15T05:14:05;2.85;;;1.25;;
59167;SDS011;44948;55.046;73.266;2023-04-15T05:17:08;2.08;;;0.98;;
59167;SDS011;44948;55.046;73.266;2023-04-15T05:20:12;1.30;;;0.52;;
59167;SDS011;44948;55.046;73.266;2023-04-15T05:23:16;3.70;;;0.90;;
59167;SDS011;44948;55.046;73.266;2023-04-15T05:26:19;5.65;;;2.83;;
59167;SDS011;44948;55.046;73.266;2023-04-15T05:29:33;1.70;;;0.80;;
59167;SDS011;44948;55.046;73.266;2023-04-15T05:36:03;8.85;;;2.53;;
59167;SDS011;44948;55.046;73.266;2023-04-15T05:39:06;11.38;;;2.90;;
59167;SDS011;44948;55.046;73.266;2023-04-15T05:42:58;2.95;;;1.63;;
59167;SDS011;44948;55.046;73.266;2023-04-15T05:46:01;2.10;;;0.93;;
59167;SDS011;44948;55.046;73.266;2023-04-15T05:49:10;1.77;;;0.70;;
59167;SDS011;44948;55.046;73.266;2023-04-15T05:52:13;4.07;;;1.00;;
59167;SDS011;44948;55.046;73.266;2023-04-15T05:55:16;1.98;;;0.90;;
59167;SDS011;44948;55.046;73.266;2023-04-15T05:58:19;1.67;;;0.70;;
59167;SDS011;44948;55.046;73.266;2023-04-15T06:01:23;2.63;;;0.90;;
59167;SDS011;44948;55.046;73.266;2023-04-15T06:04:29;1.65;;;0.98;;
59167;SDS011;44948;55.046;73.266;2023-04-15T06:07:58;2.03;;;0.63;;
59167;SDS011;44948;55.046;73.266;2023-04-15T06:11:01;0.77;;;0.65;;
59167;SDS011;44948;55.046;73.266;2023-04-15T06:14:04;3.60;;;1.77;;
59167;SDS011;44948;55.046;73.266;2023-04-15T06:17:13;3.58;;;0.93;;
59167;SDS011;44948;55.046;73.266;2023-04-15T06:20:16;2.35;;;0.90;;
59167;SDS011;44948;55.046;73.266;2023-04-15T06:23:19;4.63;;;1.43;;
59167;SDS011;44948;55.046;73.266;2023-04-15T06:26:22;2.65;;;1.20;;
59167;SDS011;44948;55.046;73.266;2023-04-15T06:29:36;2.75;;;1.00;;
59167;SDS011;44948;55.046;73.266;2023-04-15T06:36:01;0.93;;;0.70;;
59167;SDS011;44948;55.046;73.266;2023-04-15T06:39:04;4.18;;;1.42;;
59167;SDS011;44948;55.046;73.266;2023-04-15T06:42:07;3.33;;;0.82;;
59167;SDS011;44948;55.046;73.266;2023-04-15T06:45:16;2.17;;;1.00;;
59167;SDS011;44948;55.046;73.266;2023-04-15T06:48:19;2.78;;;1.15;;
59167;SDS011;44948;55.046;73.266;2023-04-15T06:51:22;5.95;;;1.25;;
59167;SDS011;44948;55.046;73.266;2023-04-15T06:54:25;3.70;;;1.08;;
59167;SDS011;44948;55.046;73.266;2023-04-15T06:57:59;2.00;;;0.82;;
59167;SDS011;44948;55.046;73.266;2023-04-15T07:01:02;3.10;;;1.10;;
59167;SDS011;44948;55.046;73.266;2023-04-15T07:04:06;5.68;;;1.10;;
59167;SDS011;44948;55.046;73.266;2023-04-15T07:07:09;4.10;;;1.10;;
59167;SDS011;44948;55.046;73.266;2023-04-15T07:10:12;3.78;;;1.23;;
59167;SDS011;44948;55.046;73.266;2023-04-15T07:13:16;3.35;;;1.40;;
59167;SDS011;44948;55.046;73.266;2023-04-15T07:16:19;3.13;;;1.10;;
59167;SDS011;44948;55.046;73.266;2023-04-15T07:19:23;2.95;;;1.00;;
59167;SDS011;44948;55.046;73.266;2023-04-15T07:22:58;5.20;;;1.42;;
59167;SDS011;44948;55.046;73.266;2023-04-15T07:26:02;2.22;;;1.10;;
59167;SDS011;44948;55.046;73.266;2023-04-15T07:29:05;2.20;;;0.90;;
59167;SDS011;44948;55.046;73.266;2023-04-15T07:32:08;7.72;;;2.13;;
59167;SDS011;44948;55.046;73.266;2023-04-15T07:35:12;2.78;;;1.20;;
59167;SDS011;44948;55.046;73.266;2023-04-15T07:38:16;2.83;;;0.97;;
59167;SDS011;44948;55.046;73.266;2023-04-15T07:41:19;2.85;;;0.75;;
59167;SDS011;44948;55.046;73.266;2023-04-15T07:44:23;2.05;;;1.15;;
59167;SDS011;44948;55.046;73.266;2023-04-15T07:47:58;3.60;;;1.45;;
59167;SDS011;44948;55.046;73.266;2023-04-15T07:51:01;3.35;;;1.35;;
59167;SDS011;44948;55.046;73.266;2023-04-15T07:54:05;4.82;;;1.40;;
59167;SDS011;44948;55.046;73.266;2023-04-15T07:57:08;1.77;;;0.88;;
59167;SDS011;44948;55.046;73.266;2023-04-15T08:00:11;3.05;;;1.50;;
59167;SDS011;44948;55.046;73.266;2023-04-15T08:06:21;3.47;;;1.10;;
59167;SDS011;44948;55.046;73.266;2023-04-15T08:09:27;6.70;;;1.83;;
59167;SDS011;44948;55.046;73.266;2023-04-15T08:12:58;2.35;;;1.33;;
59167;SDS011;44948;55.046;73.266;2023-04-15T08:19:16;4.15;;;1.10;;
59167;SDS011;44948;55.046;73.266;2023-04-15T08:22:58;4.03;;;1.00;;
59167;SDS011;44948;55.046;73.266;2023-04-15T08:26:04;3.22;;;1.10;;
59167;SDS011;44948;55.046;73.266;2023-04-15T08:29:08;1.85;;;0.98;;
59167;SDS011;44948;55.046;73.266;2023-04-15T08:32:59;5.57;;;2.06;;
59167;SDS011;44948;55.046;73.266;2023-04-15T08:36:02;1.85;;;0.88;;
59167;SDS011;44948;55.046;73.266;2023-04-15T08:39:16;6.53;;;1.52;;
59167;SDS011;44948;55.046;73.266;2023-04-15T08:42:58;5.30;;;1.00;;
59167;SDS011;44948;55.046;73.266;2023-04-15T08:46:02;2.53;;;1.20;;
59167;SDS011;44948;55.046;73.266;2023-04-15T08:49:06;5.20;;;1.25;;
59167;SDS011;44948;55.046;73.266;2023-04-15T08:52:11;1.45;;;0.47;;
59167;SDS011;44948;55.046;73.266;2023-04-15T08:55:14;2.55;;;1.05;;
59167;SDS011;44948;55.046;73.266;2023-04-15T08:58:19;2.10;;;0.82;;
59167;SDS011;44948;55.046;73.266;2023-04-15T09:01:32;5.32;;;2.28;;
59167;SDS011;44948;55.046;73.266;2023-04-15T09:04:36;2.15;;;0.90;;
59167;SDS011;44948;55.046;73.266;2023-04-15T09:11:04;7.00;;;2.53;;
59167;SDS011;44948;55.046;73.266;2023-04-15T09:14:07;9.48;;;0.88;;
59167;SDS011;44948;55.046;73.266;2023-04-15T09:17:10;7.18;;;2.22;;
59167;SDS011;44948;55.046;73.266;2023-04-15T09:20:14;11.13;;;3.03;;
59167;SDS011;44948;55.046;73.266;2023-04-15T09:23:17;18.63;;;5.90;;
59167;SDS011;44948;55.046;73.266;2023-04-15T09:29:33;5.22;;;2.13;;
59167;SDS011;44948;55.046;73.266;2023-04-15T09:36:02;1.67;;;0.73;;
59167;SDS011;44948;55.046;73.266;2023-04-15T09:39:06;5.75;;;1.15;;
59167;SDS011;44948;55.046;73.266;2023-04-15T09:42:09;1.70;;;0.93;;
59167;SDS011;44948;55.046;73.266;2023-04-15T09:45:13;2.20;;;0.98;;
59167;SDS011;44948;55.046;73.266;2023-04-15T09:48:25;1.55;;;1.00;;
59167;SDS011;44948;55.046;73.266;2023-04-15T09:51:36;4.55;;;1.38;;
59167;SDS011;44948;55.046;73.266;2023-04-15T09:54:39;4.20;;;1.35;;
59167;SDS011;44948;55.046;73.266;2023-04-15T10:01:12;0.63;;;0.55;;
59167;SDS011;44948;55.046;73.266;2023-04-15T10:04:15;4.60;;;1.38;;
59167;SDS011;44948;55.046;73.266;2023-04-15T10:07:58;2.17;;;0.93;;
59167;SDS011;44948;55.046;73.266;2023-04-15T10:11:02;11.55;;;3.90;;
59167;SDS011;44948;55.046;73.266;2023-04-15T10:14:06;3.33;;;0.90;;
59167;SDS011;44948;55.046;73.266;2023-04-15T10:17:10;1.35;;;0.82;;
59167;SDS011;44948;55.046;73.266;2023-04-15T10:20:16;1.65;;;0.70;;
59167;SDS011;44948;55.046;73.266;2023-04-15T10:23:21;22.55;;;6.75;;
59167;SDS011;44948;55.046;73.266;2023-04-15T10:26:26;1.38;;;0.80;;
59167;SDS011;44948;55.046;73.266;2023-04-15T10:29:29;3.67;;;0.70;;
59167;SDS011;44948;55.046;73.266;2023-04-15T10:32:59;0.13;;;0.13;;
59167;SDS011;44948;55.046;73.266;2023-04-15T10:36:05;1.83;;;0.70;;
59167;SDS011;44948;55.046;73.266;2023-04-15T10:39:56;3.67;;;1.27;;
59167;SDS011;44948;55.046;73.266;2023-04-15T10:46:07;2.50;;;0.52;;
59167;SDS011;44948;55.046;73.266;2023-04-15T10:49:23;4.30;;;0.90;;
59167;SDS011;44948;55.046;73.266;2023-04-15T10:52:58;1.17;;;0.80;;
59167;SDS011;44948;55.046;73.266;2023-04-15T10:56:04;3.67;;;0.90;;
59167;SDS011;44948;55.046;73.266;2023-04-15T10:59:10;10.20;;;1.53;;
59167;SDS011;44948;55.046;73.266;2023-04-15T11:02:13;2.03;;;0.90;;
59167;SDS011;44948;55.046;73.266;2023-04-15T11:05:18;6.03;;;1.98;;
59167;SDS011;44948;55.046;73.266;2023-04-15T11:08:51;2.65;;;1.42;;
59167;SDS011;44948;55.046;73.266;2023-04-15T11:18:56;7.05;;;2.58;;
59167;SDS011;44948;55.046;73.266;2023-04-15T11:22:06;20.25;;;6.95;;
59167;SDS011;44948;55.046;73.266;2023-04-15T11:25:24;17.63;;;7.57;;
59167;SDS011;44948;55.046;73.266;2023-04-15T11:28:41;31.95;;;11.60;;
59167;SDS011;44948;55.046;73.266;2023-04-15T11:31:46;22.10;;;8.55;;
59167;SDS011;44948;55.046;73.266;2023-04-15T11:34:51;11.18;;;4.70;;
59167;SDS011;44948;55.046;73.266;2023-04-15T11:41:02;17.75;;;6.47;;
59167;SDS011;44948;55.046;73.266;2023-04-15T11:44:16;15.43;;;6.60;;
59167;SDS011;44948;55.046;73.266;2023-04-15T11:48:04;20.15;;;7.82;;
59167;SDS011;44948;55.046;73.266;2023-04-15T11:51:08;13.90;;;5.25;;
59167;SDS011;44948;55.046;73.266;2023-04-15T11:54:10;20.00;;;8.00;;
59167;SDS011;44948;55.046;73.266;2023-04-15T12:01:35;11.27;;;5.47;;
59167;SDS011;44948;55.046;73.266;2023-04-15T12:04:37;15.00;;;6.68;;
59167;SDS011;44948;55.046;73.266;2023-04-15T12:11:10;12.13;;;4.82;;
59167;SDS011;44948;55.046;73.266;2023-04-15T12:14:26;12.98;;;5.47;;
59167;SDS011;44948;55.046;73.266;2023-04-15T12:17:58;8.75;;;2.75;;
59167;SDS011;44948;55.046;73.266;2023-04-15T12:21:08;12.27;;;5.10;;
59167;SDS011;44948;55.046;73.266;2023-04-15T12:24:18;9.80;;;3.88;;
59167;SDS011;44948;55.046;73.266;2023-04-15T12:27:59;7.35;;;3.50;;
59167;SDS011;44948;55.046;73.266;2023-04-15T12:31:08;7.22;;;3.65;;
59167;SDS011;44948;55.046;73.266;2023-04-15T12:34:10;4.60;;;2.40;;
59167;SDS011;44948;55.046;73.266;2023-04-15T12:37:58;8.00;;;1.73;;
59167;SDS011;44948;55.046;73.266;2023-04-15T12:41:00;3.60;;;1.58;;
59167;SDS011;44948;55.046;73.266;2023-04-15T12:44:04;2.58;;;1.27;;
59167;SDS011;44948;55.046;73.266;2023-04-15T12:47:08;2.20;;;1.02;;
59167;SDS011;44948;55.046;73.266;2023-04-15T12:50:15;7.07;;;1.75;;
59167;SDS011;44948;55.046;73.266;2023-04-15T12:53:18;1.90;;;1.10;;
59167;SDS011;44948;55.046;73.266;2023-04-15T12:56:19;3.08;;;1.45;;
59167;SDS011;44948;55.046;73.266;2023-04-15T12:59:31;3.00;;;0.80;;
59167;SDS011;44948;55.046;73.266;2023-04-15T13:06:05;2.00;;;1.10;;
59167;SDS011;44948;55.046;73.266;2023-04-15T13:09:07;3.22;;;0.98;;
59167;SDS011;44948;55.046;73.266;2023-04-15T13:12:09;8.10;;;1.27;;
59167;SDS011;44948;55.046;73.266;2023-04-15T13:15:14;3.08;;;1.00;;
59167;SDS011;44948;55.046;73.266;2023-04-15T13:18:19;1.30;;;0.60;;
59167;SDS011;44948;55.046;73.266;2023-04-15T13:21:21;1.48;;;0.90;;
59167;SDS011;44948;55.046;73.266;2023-04-15T13:24:24;3.80;;;1.02;;
59167;SDS011;44948;55.046;73.266;2023-04-15T13:27:59;3.25;;;1.25;;
59167;SDS011;44948;55.046;73.266;2023-04-15T13:31:06;3.78;;;0.70;;
59167;SDS011;44948;55.046;73.266;2023-04-15T13:34:14;3.08;;;1.80;;
59167;SDS011;44948;55.046;73.266;2023-04-15T13:38:00;4.24;;;1.20;;
59167;SDS011;44948;55.046;73.266;2023-04-15T13:41:02;4.22;;;1.17;;
59167;SDS011;44948;55.046;73.266;2023-04-15T13:44:04;4.70;;;1.70;;
59167;SDS011;44948;55.046;73.266;2023-04-15T13:47:07;4.50;;;1.35;;
59167;SDS011;44948;55.046;73.266;2023-04-15T13:50:09;7.10;;;1.73;;
59167;SDS011;44948;55.046;73.266;2023-04-15T13:53:11;3.33;;;1.40;;
59167;SDS011;44948;55.046;73.266;2023-04-15T13:56:13;10.13;;;1.20;;
59167;SDS011;44948;55.046;73.266;2023-04-15T13:59:15;3.80;;;1.17;;
59167;SDS011;44948;55.046;73.266;2023-04-15T14:02:58;3.00;;;1.23;;
59167;SDS011;44948;55.046;73.266;2023-04-15T14:06:00;5.20;;;1.52;;
59167;SDS011;44948;55.046;73.266;2023-04-15T14:09:02;5.07;;;1.80;;
59167;SDS011;44948;55.046;73.266;2023-04-15T14:12:05;5.68;;;1.33;;
59167;SDS011;44948;55.046;73.266;2023-04-15T14:15:11;3.37;;;1.40;;
59167;SDS011;44948;55.046;73.266;2023-04-15T14:18:13;7.03;;;2.00;;
59167;SDS011;44948;55.046;73.266;2023-04-15T14:21:25;3.00;;;1.20;;
59167;SDS011;44948;55.046;73.266;2023-04-15T14:24:38;11.35;;;1.77;;
59167;SDS011;44948;55.046;73.266;2023-04-15T14:31:01;4.18;;;1.40;;
59167;SDS011;44948;55.046;73.266;2023-04-15T14:34:14;12.00;;;2.28;;
59167;SDS011;44948;55.046;73.266;2023-04-15T14:37:58;7.36;;;2.64;;
59167;SDS011;44948;55.046;73.266;2023-04-15T14:41:00;4.57;;;2.17;;
59167;SDS011;44948;55.046;73.266;2023-04-15T14:44:02;5.83;;;1.80;;
59167;SDS011;44948;55.046;73.266;2023-04-15T14:47:04;4.72;;;1.92;;
59167;SDS011;44948;55.046;73.266;2023-04-15T14:50:12;3.22;;;1.40;;
59167;SDS011;44948;55.046;73.266;2023-04-15T14:53:24;3.17;;;1.90;;
59167;SDS011;44948;55.046;73.266;2023-04-15T14:56:33;5.20;;;2.00;;
59167;SDS011;44948;55.046;73.266;2023-04-15T14:59:36;5.25;;;1.60;;
59167;SDS011;44948;55.046;73.266;2023-04-15T15:06:00;12.40;;;2.80;;
59167;SDS011;44948;55.046;73.266;2023-04-15T15:09:11;9.38;;;2.92;;
59167;SDS011;44948;55.046;73.266;2023-04-15T15:12:58;9.57;;;3.37;;
59167;SDS011;44948;55.046;73.266;2023-04-15T15:16:11;10.32;;;3.75;;
59167;SDS011;44948;55.046;73.266;2023-04-15T15:19:23;8.70;;;4.28;;
59167;SDS011;44948;55.046;73.266;2023-04-15T15:26:02;15.02;;;5.22;;
59167;SDS011;44948;55.046;73.266;2023-04-15T15:29:05;12.93;;;5.07;;
59167;SDS011;44948;55.046;73.266;2023-04-15T15:32:07;9.82;;;4.45;;
59167;SDS011;44948;55.046;73.266;2023-04-15T15:35:09;10.90;;;3.38;;
59167;SDS011;44948;55.046;73.266;2023-04-15T15:38:11;11.90;;;2.85;;
59167;SDS011;44948;55.046;73.266;2023-04-15T15:41:13;10.10;;;2.55;;
59167;SDS011;44948;55.046;73.266;2023-04-15T15:48:00;9.88;;;2.30;;
59167;SDS011;44948;55.046;73.266;2023-04-15T15:51:04;9.40;;;2.80;;
59167;SDS011;44948;55.046;73.266;2023-04-15T15:54:06;6.28;;;2.42;;
59167;SDS011;44948;55.046;73.266;2023-04-15T15:57:59;7.66;;;2.62;;
59167;SDS011;44948;55.046;73.266;2023-04-15T16:01:05;9.88;;;2.78;;
59167;SDS011;44948;55.046;73.266;2023-04-15T16:04:06;8.75;;;3.65;;
59167;SDS011;44948;55.046;73.266;2023-04-15T16:07:09;8.02;;;2.42;;
59167;SDS011;44948;55.046;73.266;2023-04-15T16:10:12;7.88;;;2.30;;
59167;SDS011;44948;55.046;73.266;2023-04-15T16:13:19;15.80;;;3.83;;
59167;SDS011;44948;55.046;73.266;2023-04-15T16:16:21;15.50;;;3.58;;
59167;SDS011;44948;55.046;73.266;2023-04-15T16:19:24;11.07;;;2.70;;
59167;SDS011;44948;55.046;73.266;2023-04-15T16:22:58;5.93;;;2.08;;
59167;SDS011;44948;55.046;73.266;2023-04-15T16:26:00;5.35;;;1.95;;
59167;SDS011;44948;55.046;73.266;2023-04-15T16:29:03;5.40;;;2.05;;
59167;SDS011;44948;55.046;73.266;2023-04-15T16:32:58;6.96;;;2.69;;
59167;SDS011;44948;55.046;73.266;2023-04-15T16:36:00;7.78;;;2.05;;
59167;SDS011;44948;55.046;73.266;2023-04-15T16:39:02;12.25;;;3.55;;
59167;SDS011;44948;55.046;73.266;2023-04-15T16:42:09;102.63;;;29.10;;
59167;SDS011;44948;55.046;73.266;2023-04-15T16:45:20;143.93;;;43.80;;
59167;SDS011;44948;55.046;73.266;2023-04-15T16:48:22;50.33;;;14.55;;
59167;SDS011;44948;55.046;73.266;2023-04-15T16:51:24;50.60;;;16.13;;
59167;SDS011;44948;55.046;73.266;2023-04-15T16:54:26;62.85;;;19.02;;
59167;SDS011;44948;55.046;73.266;2023-04-15T16:57:59;94.60;;;25.08;;
59167;SDS011;44948;55.046;73.266;2023-04-15T17:01:01;47.95;;;17.75;;
59167;SDS011;44948;55.046;73.266;2023-04-15T17:04:03;126.28;;;35.38;;
59167;SDS011;44948;55.046;73.266;2023-04-15T17:07:06;409.23;;;94.88;;
59167;SDS011;44948;55.046;73.266;2023-04-15T17:10:09;90.78;;;24.90;;
59167;SDS011;44948;55.046;73.266;2023-04-15T17:13:13;73.38;;;20.85;;
59167;SDS011;44948;55.046;73.266;2023-04-15T17:16:17;34.28;;;10.38;;
59167;SDS011;44948;55.046;73.266;2023-04-15T17:19:29;67.03;;;16.92;;
59167;SDS011;44948;55.046;73.266;2023-04-15T17:26:01;35.83;;;11.38;;
59167;SDS011;44948;55.046;73.266;2023-04-15T17:29:17;16.42;;;7.07;;
59167;SDS011;44948;55.046;73.266;2023-04-15T17:32:58;19.35;;;6.40;;
59167;SDS011;44948;55.046;73.266;2023-04-15T17:36:25;11.10;;;4.60;;
59167;SDS011;44948;55.046;73.266;2023-04-15T17:39:47;10.13;;;4.75;;
59167;SDS011;44948;55.046;73.266;2023-04-15T17:43:09;26.73;;;7.47;;
59167;SDS011;44948;55.046;73.266;2023-04-15T17:46:30;124.70;;;33.17;;
59167;SDS011;44948;55.046;73.266;2023-04-15T17:49:52;99.15;;;26.85;;
59167;SDS011;44948;55.046;73.266;2023-04-15T17:53:14;77.88;;;22.48;;
59167;SDS011;44948;55.046;73.266;2023-04-15T17:56:36;46.28;;;12.88;;
59167;SDS011;44948;55.046;73.266;2023-04-15T17:59:58;61.67;;;18.02;;
59167;SDS011;44948;55.046;73.266;2023-04-15T18:03:20;59.72;;;18.50;;
59167;SDS011;44948;55.046;73.266;2023-04-15T18:06:42;71.13;;;20.23;;
59167;SDS011;44948;55.046;73.266;2023-04-15T18:10:04;94.05;;;24.67;;
59167;SDS011;44948;55.046;73.266;2023-04-15T18:13:39;98.65;;;26.35;;
59167;SDS011;44948;55.046;73.266;2023-04-15T18:17:01;44.00;;;12.90;;
59167;SDS011;44948;55.046;73.266;2023-04-15T18:20:23;70.68;;;18.92;;
59167;SDS011;44948;55.046;73.266;2023-04-15T18:23:36;34.42;;;10.60;;
59167;SDS011;44948;55.046;73.266;2023-04-15T18:26:48;72.93;;;17.80;;
59167;SDS011;44948;55.046;73.266;2023-04-15T18:29:50;25.30;;;8.30;;
59167;SDS011;44948;55.046;73.266;2023-04-15T18:36:00;16.77;;;5.60;;
59167;SDS011;44948;55.046;73.266;2023-04-15T18:39:03;19.80;;;6.43;;
59167;SDS011;44948;55.046;73.266;2023-04-15T18:42:05;14.13;;;4.78;;
59167;SDS011;44948;55.046;73.266;2023-04-15T18:45:07;12.48;;;5.15;;
59167;SDS011;44948;55.046;73.266;2023-04-15T18:48:09;11.77;;;5.25;;
59167;SDS011;44948;55.046;73.266;2023-04-15T18:51:11;14.60;;;5.57;;
59167;SDS011;44948;55.046;73.266;2023-04-15T18:54:13;11.10;;;4.65;;
59167;SDS011;44948;55.046;73.266;2023-04-15T18:57:59;13.48;;;5.25;;
59167;SDS011;44948;55.046;73.266;2023-04-15T19:01:01;13.07;;;5.88;;
59167;SDS011;44948;55.046;73.266;2023-04-15T19:04:03;11.80;;;4.55;;
59167;SDS011;44948;55.046;73.266;2023-04-15T19:07:10;16.17;;;5.03;;
59167;SDS011;44948;55.046;73.266;2023-04-15T19:10:15;11.07;;;4.53;;
59167;SDS011;44948;55.046;73.266;2023-04-15T19:13:20;12.00;;;4.77;;
59167;SDS011;44948;55.046;73.266;2023-04-15T19:16:23;8.13;;;3.45;;
59167;SDS011;44948;55.046;73.266;2023-04-15T19:19:24;12.68;;;3.58;;
59167;SDS011;44948;55.046;73.266;2023-04-15T19:26:00;10.63;;;4.72;;
59167;SDS011;44948;55.046;73.266;2023-04-15T19:29:02;11.80;;;5.20;;
59167;SDS011;44948;55.046;73.266;2023-04-15T19:32:04;18.52;;;6.80;;
59167;SDS011;44948;55.046;73.266;2023-04-15T19:35:06;13.73;;;5.82;;
59167;SDS011;44948;55.046;73.266;2023-04-15T19:38:08;14.85;;;5.97;;
59167;SDS011;44948;55.046;73.266;2023-04-15T19:41:10;25.70;;;8.02;;
59167;SDS011;44948;55.046;73.266;2023-04-15T19:44:12;23.10;;;7.68;;
59167;SDS011;44948;55.046;73.266;2023-04-15T19:47:58;20.26;;;7.80;;
59167;SDS011;44948;55.046;73.266;2023-04-15T19:51:00;18.38;;;7.32;;
59167;SDS011;44948;55.046;73.266;2023-04-15T19:54:02;18.88;;;7.13;;
59167;SDS011;44948;55.046;73.266;2023-04-15T19:57:04;20.75;;;7.05;;
59167;SDS011;44948;55.046;73.266;2023-04-15T20:00:11;14.30;;;6.22;;
59167;SDS011;44948;55.046;73.266;2023-04-15T20:03:13;13.68;;;5.32;;
59167;SDS011;44948;55.046;73.266;2023-04-15T20:06:15;14.02;;;4.78;;
59167;SDS011;44948;55.046;73.266;2023-04-15T20:09:17;9.20;;;4.00;;
59167;SDS011;44948;55.046;73.266;2023-04-15T20:12:58;10.00;;;3.95;;
59167;SDS011;44948;55.046;73.266;2023-04-15T20:16:01;13.68;;;5.03;;